Time;durP1;ratioP1;P1;durP2;ratioP2;P2;SDS_P1;SDS_P2;PMS_P1;PMS_P2;Temp;Humidity;BMP_temperature;BMP_pressure;BME280_temperature;BME280_humidity;BME280_pressure;Samples;Min_cycle;Max_cycle;Signal;HPM_P1;HPM_P2
2022/10/30 05:01:22;;;;;;;30.43;14.93;;;13.90;99.90;;;;;;6100766;22;1309509;-77
2022/10/30 05:03:47;;;;;;;27.33;12.75;;;13.90;99.90;;;;;;6165396;23;20016;-79
2022/10/30 05:06:21;;;;;;;30.38;13.02;;;13.80;99.90;;;;;;6218124;23;20009;-76
2022/10/30 05:08:48;;;;;;;26.15;13.30;;;13.80;99.90;;;;;;6217822;23;20009;-78
2022/10/30 05:11:14;;;;;;;30.05;13.98;;;13.70;99.90;;;;;;6178839;23;20009;-77
2022/10/30 05:13:40;;;;;;;28.13;12.98;;;13.70;99.90;;;;;;6161034;23;20013;-75
2022/10/30 05:16:05;;;;;;;30.48;14.27;;;13.60;99.90;;;;;;6161675;23;20013;-79
2022/10/30 05:18:31;;;;;;;28.08;14.43;;;13.60;99.90;;;;;;6161079;23;20017;-75
2022/10/30 05:20:57;;;;;;;34.60;15.73;;;13.60;99.90;;;;;;6136455;23;20347;-76
2022/10/30 05:23:22;;;;;;;26.15;13.85;;;13.50;99.90;;;;;;6161048;23;20017;-74
2022/10/30 05:25:48;;;;;;;26.75;13.25;;;13.50;99.90;;;;;;6136110;23;20013;-77
2022/10/30 05:28:14;;;;;;;41.33;15.00;;;13.40;99.90;;;;;;6187464;23;20054;-78
2022/10/30 05:30:40;;;;;;;27.83;14.63;;;13.40;99.90;;;;;;6187412;23;20320;-77
2022/10/30 05:33:09;;;;;;;30.90;13.95;;;13.40;99.90;;;;;;6187415;23;20084;-76
2022/10/30 05:35:35;;;;;;;30.55;14.70;;;13.30;99.90;;;;;;6160966;23;20017;-76
2022/10/30 05:38:02;;;;;;;27.77;13.93;;;13.30;99.90;;;;;;6160983;23;20020;-78
2022/10/30 05:40:28;;;;;;;35.55;14.13;;;13.30;99.90;;;;;;6187887;23;20009;-76
2022/10/30 05:42:53;;;;;;;29.08;13.68;;;13.20;99.90;;;;;;6161047;23;20390;-76
2022/10/30 05:45:19;;;;;;;31.27;13.93;;;13.20;99.90;;;;;;6161122;23;20067;-79
2022/10/30 05:48:02;;;;;;;24.58;12.77;;;13.20;99.90;;;;;;6187607;23;20009;-75
2022/10/30 05:50:28;;;;;;;28.02;14.02;;;13.20;99.90;;;;;;6161111;23;20324;-77
2022/10/30 05:52:56;;;;;;;34.72;15.20;;;13.10;99.90;;;;;;6187808;23;20013;-79
2022/10/30 05:55:21;;;;;;;24.83;15.15;;;13.10;99.90;;;;;;6160884;23;20048;-77
2022/10/30 05:57:47;;;;;;;39.25;16.10;;;13.10;99.90;;;;;;6187590;23;20020;-77
2022/10/30 06:00:13;;;;;;;29.55;14.93;;;13.10;99.90;;;;;;6160881;23;20023;-78
2022/10/30 06:02:39;;;;;;;33.65;13.88;;;13.00;99.90;;;;;;6161131;23;20020;-75
2022/10/30 06:05:05;;;;;;;25.30;13.68;;;13.00;99.90;;;;;;6161799;23;20423;-77
2022/10/30 06:07:30;;;;;;;35.15;13.75;;;13.00;99.90;;;;;;6187478;23;20009;-78
2022/10/30 06:09:56;;;;;;;29.27;14.63;;;13.00;99.90;;;;;;6160649;23;20015;-78
2022/10/30 06:12:22;;;;;;;30.00;15.00;;;13.00;99.90;;;;;;6185347;23;20048;-76
2022/10/30 06:14:47;;;;;;;28.00;14.30;;;13.00;99.90;;;;;;6160734;23;20020;-78
2022/10/30 06:17:13;;;;;;;35.90;15.43;;;13.00;99.90;;;;;;6160648;23;20009;-77
2022/10/30 06:19:38;;;;;;;34.60;15.38;;;12.90;99.90;;;;;;6186756;23;20312;-77
2022/10/30 06:22:04;;;;;;;28.35;14.48;;;13.00;99.90;;;;;;6186904;23;20068;-76
2022/10/30 06:24:30;;;;;;;26.60;14.30;;;12.90;99.90;;;;;;6186786;23;20017;-78
2022/10/30 06:26:55;;;;;;;31.50;15.13;;;12.90;99.90;;;;;;6160542;23;20013;-78
2022/10/30 06:29:21;;;;;;;28.35;14.70;;;12.90;99.90;;;;;;6186852;23;20020;-77
2022/10/30 06:31:47;;;;;;;31.77;15.55;;;12.90;99.90;;;;;;6187013;23;20431;-76
2022/10/30 06:34:12;;;;;;;27.00;13.75;;;13.00;99.90;;;;;;6160482;23;20067;-78
2022/10/30 06:36:38;;;;;;;32.03;14.80;;;12.90;99.90;;;;;;6160181;23;20025;-78
2022/10/30 06:39:03;;;;;;;28.23;14.82;;;12.90;99.90;;;;;;6187348;23;20327;-74
2022/10/30 06:41:29;;;;;;;34.45;15.10;;;12.90;99.90;;;;;;6187316;23;20438;-77
2022/10/30 06:43:55;;;;;;;31.45;15.00;;;12.90;99.90;;;;;;6185745;23;20020;-75
2022/10/30 06:46:21;;;;;;;36.47;16.67;;;13.00;99.90;;;;;;6160406;23;20088;-76
2022/10/30 06:48:46;;;;;;;29.02;14.68;;;13.00;99.90;;;;;;6160840;23;20489;-76
2022/10/30 06:51:14;;;;;;;33.15;15.27;;;12.90;99.90;;;;;;6186650;23;20013;-78
2022/10/30 06:53:39;;;;;;;30.00;14.90;;;12.90;99.90;;;;;;6135476;23;20513;-76
2022/10/30 06:56:05;;;;;;;39.78;15.10;;;13.00;99.90;;;;;;6159972;23;20020;-78
2022/10/30 06:58:37;;;;;;;31.42;15.80;;;13.00;99.90;;;;;;6159897;23;20061;-75
2022/10/30 07:01:06;;;;;;;30.17;14.15;;;13.00;99.90;;;;;;6159841;23;20020;-77
2022/10/30 07:03:33;;;;;;;30.73;15.68;;;13.00;99.90;;;;;;6187015;23;20009;-77
2022/10/30 07:05:58;;;;;;;26.85;14.02;;;13.00;99.90;;;;;;6186420;23;20020;-77
2022/10/30 07:08:24;;;;;;;33.35;15.25;;;13.00;99.90;;;;;;6160081;23;20013;-78
2022/10/30 07:10:50;;;;;;;36.55;15.52;;;13.10;99.90;;;;;;6159995;23;20442;-77
2022/10/30 07:13:16;;;;;;;36.33;15.13;;;13.00;99.90;;;;;;6159796;23;20045;-78
2022/10/30 07:15:43;;;;;;;35.08;14.93;;;13.10;99.90;;;;;;6186233;23;20435;-82
2022/10/30 07:18:09;;;;;;;29.15;14.77;;;13.10;99.90;;;;;;6186895;23;20116;-80
2022/10/30 07:20:35;;;;;;;29.45;14.95;;;13.10;99.90;;;;;;6186326;23;20017;-79
2022/10/30 07:23:01;;;;;;;31.98;14.63;;;13.00;99.90;;;;;;6135974;23;20083;-79
2022/10/30 07:25:27;;;;;;;26.05;14.52;;;13.00;99.90;;;;;;6186369;23;20017;-76
2022/10/30 07:27:54;;;;;;;29.75;15.77;;;13.10;99.90;;;;;;6186881;23;20016;-77
2022/10/30 07:30:23;;;;;;;24.83;13.60;;;13.10;99.90;;;;;;6186140;23;20063;-77
2022/10/30 07:33:08;;;;;;;32.15;15.52;;;13.10;99.90;;;;;;6186261;23;20435;-77
2022/10/30 07:35:35;;;;;;;34.00;15.55;;;13.10;99.90;;;;;;6160005;23;20017;-78
2022/10/30 07:38:08;;;;;;;28.42;14.02;;;13.10;99.90;;;;;;6135369;23;20019;-78
2022/10/30 07:40:34;;;;;;;32.78;15.93;;;13.10;99.90;;;;;;6186781;23;20013;-76
2022/10/30 07:43:01;;;;;;;32.42;15.38;;;13.10;99.90;;;;;;6159951;23;20063;-76
2022/10/30 07:45:27;;;;;;;36.88;15.43;;;13.10;99.90;;;;;;6186351;23;20021;-78
2022/10/30 07:47:53;;;;;;;30.65;15.18;;;13.20;99.90;;;;;;6159782;23;20013;-77
2022/10/30 07:50:19;;;;;;;38.17;14.75;;;13.10;99.90;;;;;;6186761;23;20028;-76
2022/10/30 07:52:45;;;;;;;32.20;16.55;;;13.20;99.90;;;;;;6159615;23;20024;-76
2022/10/30 07:55:11;;;;;;;27.60;15.20;;;13.20;99.90;;;;;;6159723;23;20442;-76
2022/10/30 07:57:38;;;;;;;35.20;15.95;;;13.20;99.90;;;;;;6186356;23;20410;-76
2022/10/30 08:00:06;;;;;;;34.58;15.35;;;13.30;99.90;;;;;;6135029;23;20017;-77
2022/10/30 08:02:31;;;;;;;34.83;15.82;;;13.30;99.90;;;;;;6134910;23;20435;-76
2022/10/30 08:04:57;;;;;;;26.77;14.60;;;13.30;99.90;;;;;;6185917;23;20106;-77
2022/10/30 08:07:23;;;;;;;33.25;16.08;;;13.40;99.90;;;;;;6160100;23;20135;-76
2022/10/30 08:09:48;;;;;;;30.38;14.57;;;13.40;99.90;;;;;;6186457;23;20064;-78
2022/10/30 08:12:14;;;;;;;34.25;15.63;;;13.50;99.90;;;;;;6185618;23;20013;-76
2022/10/30 08:14:40;;;;;;;33.58;15.25;;;13.50;99.90;;;;;;6159604;23;20477;-78
2022/10/30 08:17:09;;;;;;;27.25;14.52;;;13.50;99.90;;;;;;6159449;23;20084;-77
2022/10/30 08:19:35;;;;;;;30.75;15.48;;;13.50;99.90;;;;;;6186085;23;20079;-75
2022/10/30 08:22:01;;;;;;;29.70;15.27;;;13.60;99.90;;;;;;6185804;23;20013;-77
2022/10/30 08:24:26;;;;;;;33.10;15.85;;;13.70;99.90;;;;;;6159296;23;20062;-76
2022/10/30 08:26:52;;;;;;;35.15;15.23;;;13.70;99.90;;;;;;6160330;23;20107;-76
2022/10/30 08:29:18;;;;;;;28.10;15.23;;;13.70;99.90;;;;;;6161527;23;20016;-77
2022/10/30 08:31:46;;;;;;;30.10;14.98;;;13.80;99.90;;;;;;6161528;23;20123;-77
2022/10/30 08:34:12;;;;;;;39.55;15.88;;;13.80;99.90;;;;;;6187784;23;20317;-75
2022/10/30 08:36:37;;;;;;;32.85;14.65;;;13.90;99.90;;;;;;6161234;23;20020;-77
2022/10/30 08:39:03;;;;;;;29.08;14.40;;;14.00;99.90;;;;;;6161405;23;20013;-77
2022/10/30 08:41:29;;;;;;;26.08;15.23;;;14.10;99.90;;;;;;6160933;23;20009;-76
2022/10/30 08:43:55;;;;;;;28.98;14.68;;;14.20;99.90;;;;;;6187403;23;20461;-77
2022/10/30 08:46:20;;;;;;;26.65;14.48;;;14.30;99.90;;;;;;6161312;23;20009;-76
2022/10/30 08:48:46;;;;;;;28.60;14.32;;;14.50;99.90;;;;;;6161694;23;20075;-77
2022/10/30 08:51:11;;;;;;;34.83;14.75;;;14.70;99.90;;;;;;6161287;23;20334;-77
2022/10/30 08:53:37;;;;;;;26.67;14.85;;;14.90;99.90;;;;;;6161165;23;20020;-77
2022/10/30 08:56:04;;;;;;;25.55;14.18;;;15.00;99.90;;;;;;6188556;23;20461;-78
2022/10/30 08:58:30;;;;;;;27.42;14.00;;;15.10;99.90;;;;;;6188263;23;20009;-85
2022/10/30 09:00:56;;;;;;;28.50;14.65;;;15.30;99.90;;;;;;6161625;23;20020;-79
2022/10/30 09:03:22;;;;;;;27.00;13.57;;;15.50;99.90;;;;;;6161524;23;20006;-79
2022/10/30 09:05:48;;;;;;;29.45;13.48;;;15.70;99.90;;;;;;6136996;23;20067;-78
2022/10/30 09:08:14;;;;;;;31.80;13.18;;;15.80;99.90;;;;;;6187644;23;20521;-79
2022/10/30 09:10:39;;;;;;;21.70;13.25;;;15.90;99.90;;;;;;6161510;23;20013;-80
2022/10/30 09:13:06;;;;;;;28.23;13.10;;;16.00;99.90;;;;;;6161553;23;20434;-79
2022/10/30 09:15:32;;;;;;;25.70;13.05;;;16.10;99.90;;;;;;6161885;23;20013;-79
2022/10/30 09:18:02;;;;;;;24.80;14.15;;;16.20;99.90;;;;;;6188125;23;20019;-79
2022/10/30 09:20:29;;;;;;;24.80;13.07;;;16.30;99.90;;;;;;6187747;23;20039;-79
2022/10/30 09:22:55;;;;;;;26.13;12.85;;;16.30;99.90;;;;;;6161354;23;20419;-80
2022/10/30 09:25:21;;;;;;;29.42;13.25;;;16.20;99.90;;;;;;6161705;23;20115;-81
2022/10/30 09:27:46;;;;;;;25.55;13.23;;;16.30;99.90;;;;;;6162105;23;20016;-80
2022/10/30 09:30:13;;;;;;;28.58;14.45;;;16.30;99.90;;;;;;6137223;23;20443;-78
2022/10/30 09:32:39;;;;;;;25.25;12.77;;;16.30;99.90;;;;;;6162060;23;20332;-79
2022/10/30 09:35:05;;;;;;;30.00;13.23;;;16.40;99.90;;;;;;6188448;23;20013;-80
2022/10/30 09:37:35;;;;;;;23.75;12.32;;;16.40;99.90;;;;;;6161372;23;20067;-79
2022/10/30 09:40:03;;;;;;;27.88;12.38;;;16.60;99.90;;;;;;6162170;23;20082;-78
2022/10/30 09:42:32;;;;;;;32.97;13.80;;;16.70;99.90;;;;;;6188164;23;20016;-82
2022/10/30 09:45:24;;;;;;;23.73;12.60;;;16.90;99.90;;;;;;6187727;23;20013;-79
2022/10/30 09:48:29;;;;;;;22.27;11.95;;;17.00;99.90;;;;;;6186108;23;20020;-81
2022/10/30 09:51:13;;;;;;;23.23;12.02;;;17.20;99.90;;;;;;6161587;23;20013;-78
2022/10/30 09:53:57;;;;;;;25.23;13.20;;;17.30;99.90;;;;;;6161618;23;20039;-79
2022/10/30 09:56:40;;;;;;;28.60;12.52;;;17.40;99.90;;;;;;6187787;23;20304;-80
2022/10/30 09:59:18;;;;;;;23.95;12.45;;;17.50;99.90;;;;;;6137260;23;20013;-79
2022/10/30 10:02:17;;;;;;;23.67;12.25;;;17.70;99.90;;;;;;6160932;23;20040;-82
2022/10/30 10:04:48;;;;;;;25.58;12.45;;;17.90;99.90;;;;;;6161141;23;20044;-80
2022/10/30 10:07:24;;;;;;;26.52;12.55;;;18.00;99.90;;;;;;6187699;23;20013;-80
2022/10/30 10:09:54;;;;;;;29.65;12.95;;;18.20;99.90;;;;;;6161082;23;20009;-79
2022/10/30 10:12:32;;;;;;;26.35;12.82;;;18.30;99.90;;;;;;6187731;23;20005;-80
2022/10/30 10:15:02;;;;;;;25.33;11.45;;;18.40;99.90;;;;;;6187674;23;20067;-79
2022/10/30 10:17:33;;;;;;;25.20;12.43;;;18.50;99.90;;;;;;6161290;23;20059;-78
2022/10/30 10:20:00;;;;;;;22.52;11.43;;;18.40;99.90;;;;;;6188253;23;20009;-81
2022/10/30 10:22:44;;;;;;;24.92;11.93;;;18.50;99.90;;;;;;6161101;23;20044;-82
2022/10/30 10:25:14;;;;;;;25.92;11.88;;;18.60;99.90;;;;;;6187483;23;20383;-78
2022/10/30 10:27:52;;;;;;;20.20;11.48;;;18.70;99.90;;;;;;6161176;23;20023;-81
2022/10/30 10:30:19;;;;;;;22.95;11.75;;;18.90;99.90;;;;;;6187622;23;20035;-78
2022/10/30 10:33:05;;;;;;;24.10;12.18;;;19.00;99.90;;;;;;6161045;23;20083;-79
2022/10/30 10:35:58;;;;;;;27.90;12.15;;;19.10;99.90;;;;;;6160664;23;20325;-81
2022/10/30 10:38:36;;;;;;;24.25;11.30;;;19.30;99.90;;;;;;6161309;23;20052;-82
2022/10/30 10:41:38;;;;;;;21.42;10.27;;;19.40;99.90;;;;;;6161071;23;20012;-80
2022/10/30 10:44:18;;;;;;;21.88;10.55;;;19.60;99.90;;;;;;6160587;23;20017;-80
2022/10/30 10:46:49;;;;;;;24.60;10.98;;;19.70;99.90;;;;;;6188019;23;20068;-80
2022/10/30 10:49:30;;;;;;;23.10;11.20;;;19.80;99.90;;;;;;6186917;23;20051;-78
2022/10/30 10:52:01;;;;;;;19.90;11.05;;;19.90;99.90;;;;;;6160753;23;20342;-81
2022/10/30 10:54:42;;;;;;;28.52;11.07;;;20.00;99.90;;;;;;6187992;23;20327;-81
2022/10/30 10:57:34;;;;;;;21.95;10.80;;;20.10;99.90;;;;;;6161165;23;20031;-83
2022/10/30 11:00:24;;;;;;;23.35;10.50;;;20.20;99.90;;;;;;6160282;23;20386;-81
2022/10/30 11:03:11;;;;;;;26.35;9.95;;;20.40;99.90;;;;;;6189212;23;20013;-81
2022/10/30 11:05:51;;;;;;;20.90;9.68;;;20.40;99.90;;;;;;6160974;23;20052;-80
2022/10/30 11:08:27;;;;;;;24.70;11.25;;;20.40;99.90;;;;;;6161360;23;20028;-79
2022/10/30 11:11:01;;;;;;;22.92;11.05;;;20.40;99.90;;;;;;6160494;23;20404;-83
2022/10/30 11:13:33;;;;;;;24.48;11.23;;;20.50;99.90;;;;;;6160758;23;20024;-81
2022/10/30 11:16:23;;;;;;;24.70;11.35;;;20.50;99.90;;;;;;6136420;23;20020;-82
2022/10/30 11:18:54;;;;;;;24.35;9.98;;;20.50;99.90;;;;;;6160976;23;20017;-79
2022/10/30 11:21:25;;;;;;;25.30;11.23;;;20.50;99.90;;;;;;6160175;23;20021;-81
2022/10/30 11:23:52;;;;;;;18.95;10.63;;;20.60;99.90;;;;;;6160448;23;20103;-81
2022/10/30 11:26:17;;;;;;;22.90;11.60;;;20.60;99.90;;;;;;6160827;23;20032;-81
2022/10/30 11:28:49;;;;;;;26.10;10.88;;;20.70;99.90;;;;;;6136374;23;20431;-80
2022/10/30 11:31:17;;;;;;;23.60;10.73;;;20.60;99.90;;;;;;6160674;23;20420;-78
2022/10/30 11:33:43;;;;;;;19.38;9.60;;;20.50;99.90;;;;;;6160575;23;20128;-80
2022/10/30 11:36:09;;;;;;;23.70;9.30;;;20.60;99.90;;;;;;6160592;23;20044;-79
2022/10/30 11:38:35;;;;;;;21.67;9.68;;;20.80;99.90;;;;;;6187661;23;20009;-79
2022/10/30 11:41:01;;;;;;;17.80;9.70;;;21.00;99.90;;;;;;6160540;23;20020;-80
2022/10/30 11:43:27;;;;;;;18.88;9.05;;;21.00;99.90;;;;;;6160190;23;20059;-80
2022/10/30 11:45:53;;;;;;;17.98;8.23;;;21.00;99.90;;;;;;6160189;23;20013;-82
2022/10/30 11:48:23;;;;;;;17.80;8.00;;;21.10;99.90;;;;;;6160028;23;20051;-81
2022/10/30 11:50:50;;;;;;;21.58;8.45;;;21.20;99.90;;;;;;6160211;23;20013;-79
2022/10/30 11:53:30;;;;;;;15.52;7.45;;;21.30;99.90;;;;;;6160396;23;20400;-80
2022/10/30 11:55:57;;;;;;;20.08;7.90;;;21.20;99.90;;;;;;6160704;23;20431;-83
2022/10/30 11:58:30;;;;;;;22.80;8.35;;;21.00;99.90;;;;;;6160228;23;20017;-79
2022/10/30 12:01:13;;;;;;;18.60;7.88;;;21.00;99.90;;;;;;6160294;23;20017;-81
2022/10/30 12:03:40;;;;;;;17.48;7.63;;;21.00;99.90;;;;;;6160072;23;20021;-78
2022/10/30 12:06:07;;;;;;;20.90;7.25;;;21.00;99.90;;;;;;6160223;23;20379;-78
2022/10/30 12:08:33;;;;;;;18.70;7.20;;;21.00;99.90;;;;;;6135943;23;20453;-82
2022/10/30 12:11:02;;;;;;;17.10;7.13;;;21.10;99.90;;;;;;6186543;23;20045;-78
2022/10/30 12:13:35;;;;;;;20.40;7.60;;;21.10;99.90;;;;;;6160260;23;20047;-80
2022/10/30 12:16:07;;;;;;;19.13;9.05;;;20.90;99.90;;;;;;6159953;23;20324;-82
2022/10/30 12:18:33;;;;;;;23.70;8.55;;;20.80;99.90;;;;;;6186335;23;20016;-81
2022/10/30 12:21:00;;;;;;;21.08;8.20;;;20.80;99.90;;;;;;6186079;23;20357;-79
2022/10/30 12:23:27;;;;;;;19.92;7.85;;;20.70;99.90;;;;;;6159697;23;20021;-80
2022/10/30 12:26:14;;;;;;;15.18;8.15;;;20.70;99.90;;;;;;6159758;23;20020;-81
2022/10/30 12:28:51;;;;;;;23.00;8.60;;;20.70;99.90;;;;;;6187465;23;20005;-78
2022/10/30 12:31:24;;;;;;;18.13;8.27;;;20.70;99.90;;;;;;6186740;23;20361;-79
2022/10/30 12:34:03;;;;;;;19.48;8.70;;;20.80;99.90;;;;;;6160225;23;20112;-79
2022/10/30 12:36:35;;;;;;;23.45;8.07;;;20.80;99.90;;;;;;6186808;23;20415;-79
2022/10/30 12:39:17;;;;;;;20.52;8.27;;;20.80;99.90;;;;;;6159945;23;20009;-80
2022/10/30 12:41:54;;;;;;;23.00;9.15;;;20.80;99.90;;;;;;6186689;23;20324;-84
2022/10/30 12:44:19;;;;;;;18.55;8.35;;;20.90;99.90;;;;;;6135330;23;20016;-82
2022/10/30 12:47:14;;;;;;;15.55;6.85;;;20.80;99.90;;;;;;6135639;23;20470;-80
2022/10/30 12:50:18;;;;;;;17.88;7.78;;;20.80;99.90;;;;;;6179198;23;20015;-81
2022/10/30 12:52:51;;;;;;;17.60;7.53;;;20.80;99.90;;;;;;6157102;23;20009;-79
2022/10/30 12:55:38;;;;;;;20.95;7.53;;;20.90;99.90;;;;;;6156454;23;20039;-78
2022/10/30 12:58:28;;;;;;;21.88;8.07;;;20.90;99.90;;;;;;6156564;23;20435;-82
2022/10/30 13:01:11;;;;;;;20.15;7.72;;;20.90;99.90;;;;;;6156133;23;20382;-81
2022/10/30 13:04:08;;;;;;;18.58;7.80;;;20.90;99.90;;;;;;6157589;23;20044;-82
2022/10/30 13:06:43;;;;;;;19.15;7.32;;;20.80;99.90;;;;;;6129763;23;20020;-81
2022/10/30 13:10:02;;;;;;;16.80;7.18;;;20.80;99.90;;;;;;6159710;23;20084;-80
2022/10/30 13:12:36;;;;;;;16.15;7.05;;;20.70;99.90;;;;;;6038474;23;20151;-81
2022/10/30 13:15:08;;;;;;;21.87;7.33;;;20.80;99.90;;;;;;6015806;23;20016;-80
2022/10/30 13:17:33;;;;;;;19.33;7.63;;;20.70;99.90;;;;;;6112800;23;20044;-78
2022/10/30 13:19:59;;;;;;;20.88;7.35;;;20.70;99.90;;;;;;6161464;23;20080;-82
2022/10/30 13:22:34;;;;;;;15.93;6.68;;;20.70;99.90;;;;;;6161199;23;20087;-79
2022/10/30 13:25:10;;;;;;;19.00;7.38;;;20.60;99.90;;;;;;6161188;23;20017;-80
2022/10/30 13:27:44;;;;;;;21.17;7.30;;;20.50;99.90;;;;;;6187402;23;20450;-78
2022/10/30 13:30:19;;;;;;;20.00;7.63;;;20.40;99.90;;;;;;6161018;23;20013;-80
2022/10/30 13:33:22;;;;;;;21.70;7.65;;;20.40;99.90;;;;;;6136660;23;20447;-80
2022/10/30 13:36:04;;;;;;;16.35;8.10;;;20.30;99.90;;;;;;6187890;23;20056;-79
2022/10/30 13:38:42;;;;;;;18.40;7.70;;;20.20;99.90;;;;;;6161336;23;20033;-78
2022/10/30 13:41:35;;;;;;;19.67;7.75;;;20.20;99.90;;;;;;6161011;23;20080;-78
2022/10/30 13:44:28;;;;;;;18.25;7.43;;;20.00;99.90;;;;;;6160889;23;20447;-80
2022/10/30 13:47:05;;;;;;;19.88;7.63;;;20.00;99.90;;;;;;6188180;23;20391;-80
2022/10/30 13:49:55;;;;;;;17.88;7.55;;;20.00;99.90;;;;;;6187835;23;20020;-78
2022/10/30 13:52:22;;;;;;;23.42;7.68;;;19.90;99.90;;;;;;6160992;23;20041;-80
2022/10/30 13:55:12;;;;;;;21.02;7.80;;;19.90;99.90;;;;;;6160999;23;20035;-79
2022/10/30 13:57:56;;;;;;;20.15;8.50;;;19.90;99.90;;;;;;6187836;23;20024;-81
2022/10/30 14:00:33;;;;;;;17.67;7.72;;;20.00;99.90;;;;;;6160758;23;20092;-80
2022/10/30 14:03:07;;;;;;;21.27;8.52;;;20.00;99.90;;;;;;6188112;23;20013;-80
2022/10/30 14:05:35;;;;;;;23.75;8.43;;;20.00;99.90;;;;;;6187442;23;20064;-82
2022/10/30 14:08:55;;;;;;;18.23;7.95;;;20.00;99.90;;;;;;6161402;23;20331;-78
2022/10/30 14:11:21;;;;;;;19.98;7.97;;;20.00;99.90;;;;;;6015061;23;20015;-78
2022/10/30 14:14:11;;;;;;;20.20;7.70;;;20.00;99.90;;;;;;6151890;23;20039;-77
2022/10/30 14:16:42;;;;;;;19.55;7.53;;;20.00;99.90;;;;;;6160858;23;20021;-80
2022/10/30 14:19:13;;;;;;;17.80;8.30;;;20.00;99.90;;;;;;6160761;23;20020;-80
2022/10/30 14:21:40;;;;;;;16.17;7.93;;;19.90;99.90;;;;;;6161131;23;20009;-79
2022/10/30 14:24:13;;;;;;;15.20;7.63;;;19.90;99.90;;;;;;6160823;23;20426;-79
2022/10/30 14:26:49;;;;;;;21.70;8.05;;;19.80;99.90;;;;;;6160837;23;20009;-79
2022/10/30 14:29:39;;;;;;;16.00;8.25;;;19.80;99.90;;;;;;6187061;23;20080;-80
2022/10/30 14:32:14;;;;;;;17.55;7.40;;;19.70;99.90;;;;;;6160676;23;20020;-78
2022/10/30 14:34:49;;;;;;;23.25;8.30;;;19.70;99.90;;;;;;6161674;23;20016;-82
2022/10/30 14:37:21;;;;;;;25.05;10.95;;;19.60;99.90;;;;;;6160748;23;20016;-78
2022/10/30 14:39:48;;;;;;;22.80;9.40;;;19.60;99.90;;;;;;6160841;23;20044;-80
2022/10/30 14:42:23;;;;;;;18.42;8.88;;;19.50;99.90;;;;;;6161068;23;20320;-81
2022/10/30 14:45:15;;;;;;;20.95;8.68;;;19.50;99.90;;;;;;6160676;23;20013;-79
2022/10/30 14:47:55;;;;;;;19.60;8.73;;;19.40;99.90;;;;;;6160875;23;20016;-78
2022/10/30 14:50:41;;;;;;;16.15;7.30;;;19.40;99.90;;;;;;6160567;23;20013;-78
2022/10/30 14:53:25;;;;;;;19.75;7.68;;;19.40;99.90;;;;;;6159636;23;20088;-82
2022/10/30 14:56:17;;;;;;;18.73;7.70;;;19.30;99.90;;;;;;6186908;23;20017;-81
2022/10/30 14:58:43;;;;;;;21.48;8.55;;;19.30;99.90;;;;;;6160402;23;20021;-79
2022/10/30 15:01:41;;;;;;;24.83;7.75;;;19.20;99.90;;;;;;6186434;23;20024;-81
2022/10/30 15:04:21;;;;;;;21.08;8.32;;;19.20;99.90;;;;;;6110956;23;20023;-81
2022/10/30 15:07:19;;;;;;;18.35;7.90;;;19.10;99.90;;;;;;6160504;23;20024;-79
2022/10/30 15:10:11;;;;;;;19.92;8.52;;;19.10;99.90;;;;;;6186560;23;20043;-81
2022/10/30 15:12:57;;;;;;;17.40;7.78;;;19.00;99.90;;;;;;6186873;23;20020;-77
2022/10/30 15:15:23;;;;;;;16.58;7.93;;;19.00;99.90;;;;;;6185149;23;20039;-79
2022/10/30 15:17:52;;;;;;;18.88;8.35;;;19.00;99.90;;;;;;6160294;23;20017;-78
2022/10/30 15:20:20;;;;;;;20.35;8.32;;;18.90;99.90;;;;;;6186674;23;20017;-78
2022/10/30 15:22:56;;;;;;;17.45;7.82;;;18.90;99.90;;;;;;6160001;23;20051;-78
2022/10/30 15:25:24;;;;;;;18.95;7.88;;;18.90;99.90;;;;;;6186565;23;20123;-77
2022/10/30 15:27:52;;;;;;;20.20;9.00;;;18.80;99.90;;;;;;6186766;23;20332;-81
2022/10/30 15:30:23;;;;;;;20.73;8.63;;;18.80;99.90;;;;;;6186216;23;20017;-80
2022/10/30 15:32:49;;;;;;;21.45;8.90;;;18.80;99.90;;;;;;6186533;23;20008;-79
2022/10/30 15:35:19;;;;;;;22.75;9.18;;;18.80;99.90;;;;;;6159621;23;20082;-81
2022/10/30 15:38:01;;;;;;;21.85;8.52;;;18.70;99.90;;;;;;6186903;23;20021;-79
2022/10/30 15:40:28;;;;;;;25.70;8.65;;;18.70;99.90;;;;;;6186621;23;20013;-79
2022/10/30 15:42:55;;;;;;;22.10;8.65;;;18.60;99.90;;;;;;6160014;23;20019;-81
2022/10/30 15:45:43;;;;;;;16.17;9.02;;;18.60;99.90;;;;;;6186136;23;20439;-79
2022/10/30 15:48:29;;;;;;;18.75;8.45;;;18.50;99.90;;;;;;6186490;23;20327;-78
2022/10/30 15:51:07;;;;;;;21.90;9.90;;;18.40;99.90;;;;;;6159880;23;20013;-80
2022/10/30 15:53:41;;;;;;;20.50;9.43;;;18.30;99.90;;;;;;6186536;23;20013;-81
2022/10/30 15:56:26;;;;;;;21.25;9.48;;;18.30;99.90;;;;;;6159881;23;20075;-81
2022/10/30 15:59:15;;;;;;;23.63;10.65;;;18.20;99.90;;;;;;6160117;23;20382;-77
2022/10/30 16:01:45;;;;;;;27.63;11.63;;;18.20;99.90;;;;;;6134997;23;20013;-78
2022/10/30 16:04:39;;;;;;;25.05;12.20;;;18.10;99.90;;;;;;6186105;23;20076;-80
2022/10/30 16:07:19;;;;;;;24.20;9.90;;;18.00;99.90;;;;;;6116302;23;20013;-76
2022/10/30 16:09:56;;;;;;;21.52;11.23;;;18.00;99.90;;;;;;6186112;23;20020;-79
2022/10/30 16:12:27;;;;;;;23.88;11.00;;;17.90;99.90;;;;;;6159886;23;20032;-78
2022/10/30 16:14:57;;;;;;;26.80;12.27;;;17.90;99.90;;;;;;6186513;23;20021;-80
2022/10/30 16:17:25;;;;;;;33.03;14.52;;;17.80;99.90;;;;;;6160408;23;20068;-78
2022/10/30 16:19:55;;;;;;;27.33;12.05;;;17.80;99.90;;;;;;6159648;23;20493;-79
2022/10/30 16:22:28;;;;;;;24.33;12.32;;;17.80;99.90;;;;;;6185760;23;20016;-79
2022/10/30 16:25:36;;;;;;;;;;;;;;;;;;;;;
2022/10/30 16:28:03;;;;;;;32.28;12.95;;;17.70;99.90;;;;;;6159687;23;20009;-80
2022/10/30 16:30:30;;;;;;;29.02;13.63;;;17.70;99.90;;;;;;6160172;23;20005;-79
2022/10/30 16:32:57;;;;;;;28.42;13.02;;;17.70;99.90;;;;;;6159152;23;20497;-81
2022/10/30 16:35:24;;;;;;;28.85;14.45;;;17.70;99.90;;;;;;6159227;23;20017;-77
2022/10/30 16:37:50;;;;;;;27.40;13.57;;;17.60;99.90;;;;;;6159409;23;20387;-77
2022/10/30 16:40:20;;;;;;;28.25;13.73;;;17.60;99.90;;;;;;6158269;23;20021;-77
2022/10/30 16:42:57;;;;;;;30.50;14.23;;;17.50;99.90;;;;;;6186184;23;20052;-77
2022/10/30 16:45:23;;;;;;;33.00;15.93;;;17.50;99.90;;;;;;6159169;23;20060;-75
2022/10/30 16:47:57;;;;;;;29.98;15.45;;;17.50;99.90;;;;;;6186599;23;20013;-74
2022/10/30 16:50:30;;;;;;;37.40;15.25;;;17.40;99.90;;;;;;6187637;23;20445;-76
2022/10/30 16:53:05;;;;;;;35.08;16.27;;;17.40;99.90;;;;;;6161290;23;20013;-75
2022/10/30 16:55:30;;;;;;;29.77;15.07;;;17.40;99.90;;;;;;6136505;23;20017;-77
2022/10/30 16:57:57;;;;;;;28.85;15.30;;;17.40;99.90;;;;;;6161189;23;20152;-78
2022/10/30 17:00:26;;;;;;;37.25;17.02;;;17.30;99.90;;;;;;6160982;23;20017;-75
2022/10/30 17:02:54;;;;;;;35.83;17.15;;;17.30;99.90;;;;;;6187435;23;20084;-76
2022/10/30 17:05:28;;;;;;;38.05;17.83;;;17.30;99.90;;;;;;6187744;23;20402;-76
2022/10/30 17:07:59;;;;;;;37.67;18.23;;;17.30;99.90;;;;;;6187728;23;20083;-76
2022/10/30 17:10:33;;;;;;;34.40;16.90;;;17.30;99.90;;;;;;6187743;23;20033;-76
2022/10/30 17:13:31;;;;;;;35.50;18.65;;;17.30;99.90;;;;;;6187156;23;20012;-78
2022/10/30 17:15:58;;;;;;;36.17;18.95;;;17.30;99.90;;;;;;6187251;23;20031;-75
2022/10/30 17:18:31;;;;;;;39.28;19.20;;;17.20;99.90;;;;;;6161670;23;20017;-78
2022/10/30 17:21:15;;;;;;;38.30;19.95;;;17.20;99.90;;;;;;6187233;23;20458;-77
2022/10/30 17:23:46;;;;;;;38.53;19.02;;;17.20;99.90;;;;;;6160725;23;20142;-77
2022/10/30 17:26:12;;;;;;;38.88;18.65;;;17.10;99.90;;;;;;6160590;23;20064;-77
2022/10/30 17:28:39;;;;;;;28.48;17.98;;;17.10;99.90;;;;;;6160898;23;20017;-76
2022/10/30 17:31:17;;;;;;;37.00;18.30;;;17.10;99.90;;;;;;6160833;23;20444;-75
2022/10/30 17:33:46;;;;;;;36.45;18.83;;;17.10;99.90;;;;;;6160888;23;20487;-74
2022/10/30 17:36:12;;;;;;;40.38;19.70;;;17.00;99.90;;;;;;6160460;23;20431;-77
2022/10/30 17:38:38;;;;;;;36.30;17.75;;;17.00;99.90;;;;;;6160642;23;20021;-77
2022/10/30 17:41:12;;;;;;;37.20;19.45;;;17.00;99.90;;;;;;6160794;23;20023;-78
2022/10/30 17:43:50;;;;;;;39.85;19.23;;;17.00;99.90;;;;;;6160899;23;20017;-76
2022/10/30 17:46:15;;;;;;;35.25;20.98;;;17.00;99.90;;;;;;6187448;23;20124;-77
2022/10/30 17:48:42;;;;;;;43.03;22.27;;;17.00;99.90;;;;;;6160552;23;20129;-77
2022/10/30 17:51:15;;;;;;;41.20;22.75;;;16.90;99.90;;;;;;6160513;23;20013;-79
2022/10/30 17:53:41;;;;;;;33.67;19.55;;;16.80;99.90;;;;;;6160526;23;20040;-79
2022/10/30 17:56:20;;;;;;;34.60;19.95;;;16.80;99.90;;;;;;6160596;23;20048;-79
2022/10/30 17:58:46;;;;;;;39.38;20.20;;;16.80;99.90;;;;;;6160500;23;20067;-78